FDX10 KMEM-LFPG
Flight info
| Callsign | FDX10 |
|---|---|
| Flight time | N/A |
| Altitude | 31000 |
| Route | GENEH7 NUYID DCT IIU DCT FAALS DCT KELIE DCT SYR DCT CABCI DCT TAFFY N693A NEEKO/M084F340 NATZ GISTI/M083F350 DCT ARKIL/N0477F350 DCT ANNET UM25 INGOR/N0484F280 UM25 LUKIP |
| Aircraft | B77L/H-SDE1E2E3FGHIJ2J3J4J5M1RWXY/LB1D1 |
Departure
| Time | N/A |
|---|---|
| Airport | Memphis International Airport (KMEM) |
Arrival
| Time | 2026-05-01 10:11 |
|---|---|
| Airport | Charles de Gaulle International Airport (LFPG) |
| Time | Latitude | Longitude | Altitude | Speed | Heading |
|---|---|---|---|---|---|
| 2026-05-01 07:23 | 55.00471 | -30.11618 | 33400 ft | 517 kts | 91° |
| 2026-05-01 07:24 | 54.99656 | -29.92854 | 33398 ft | 518 kts | 93° |
| 2026-05-01 07:24 | 54.98917 | -29.80366 | 33398 ft | 519 kts | 94° |
| 2026-05-01 07:25 | 54.98136 | -29.67856 | 33401 ft | 519 kts | 94° |
| 2026-05-01 07:25 | 54.97366 | -29.55350 | 33401 ft | 520 kts | 93° |
| 2026-05-01 07:26 | 54.96603 | -29.42904 | 33392 ft | 520 kts | 93° |
| 2026-05-01 07:26 | 54.95825 | -29.30360 | 33394 ft | 520 kts | 94° |
| 2026-05-01 07:27 | 54.95033 | -29.17833 | 33394 ft | 520 kts | 94° |
| 2026-05-01 07:27 | 54.94233 | -29.05403 | 33391 ft | 520 kts | 94° |
| 2026-05-01 07:28 | 54.93415 | -28.92921 | 33392 ft | 519 kts | 94° |
| 2026-05-01 07:28 | 54.92586 | -28.80455 | 33380 ft | 517 kts | 94° |
| 2026-05-01 07:29 | 54.91748 | -28.68051 | 33389 ft | 516 kts | 94° |
| 2026-05-01 07:29 | 54.90900 | -28.55673 | 33391 ft | 515 kts | 94° |
| 2026-05-01 07:30 | 54.90040 | -28.43323 | 33389 ft | 515 kts | 94° |
| 2026-05-01 07:30 | 54.89167 | -28.30958 | 33410 ft | 515 kts | 94° |
| 2026-05-01 07:31 | 54.88286 | -28.18672 | 33393 ft | 517 kts | 94° |
| 2026-05-01 07:32 | 54.86009 | -27.87718 | 33390 ft | 516 kts | 94° |
| 2026-05-01 07:33 | 54.84607 | -27.69189 | 33384 ft | 515 kts | 94° |
| 2026-05-01 07:33 | 54.83180 | -27.50696 | 33384 ft | 516 kts | 94° |
| 2026-05-01 07:34 | 54.81728 | -27.32267 | 33386 ft | 516 kts | 95° |
| 2026-05-01 07:35 | 54.80740 | -27.19939 | 33379 ft | 515 kts | 94° |
| 2026-05-01 07:35 | 54.79743 | -27.07651 | 33372 ft | 514 kts | 94° |
| 2026-05-01 07:36 | 54.78739 | -26.95445 | 33401 ft | 513 kts | 95° |
| 2026-05-01 07:36 | 54.77719 | -26.83189 | 33384 ft | 513 kts | 95° |
| 2026-05-01 07:37 | 54.76168 | -26.64843 | 33372 ft | 513 kts | 95° |
| 2026-05-01 07:37 | 54.75119 | -26.52623 | 33373 ft | 513 kts | 95° |
| 2026-05-01 07:38 | 54.74058 | -26.40419 | 33376 ft | 513 kts | 95° |
| 2026-05-01 07:39 | 54.72451 | -26.22207 | 33380 ft | 512 kts | 95° |
| 2026-05-01 07:39 | 54.70814 | -26.03978 | 33367 ft | 510 kts | 95° |
| 2026-05-01 07:40 | 54.69710 | -25.91867 | 33364 ft | 509 kts | 95° |
| 2026-05-01 07:40 | 54.68598 | -25.79791 | 33365 ft | 508 kts | 95° |
| 2026-05-01 07:41 | 54.67473 | -25.67725 | 33365 ft | 508 kts | 95° |
| 2026-05-01 07:42 | 54.65773 | -25.49723 | 33371 ft | 508 kts | 95° |
| 2026-05-01 07:42 | 54.64619 | -25.37696 | 33365 ft | 507 kts | 95° |
| 2026-05-01 07:43 | 54.63459 | -25.25720 | 33352 ft | 505 kts | 96° |
| 2026-05-01 07:43 | 54.61702 | -25.07811 | 33354 ft | 503 kts | 96° |
| 2026-05-01 07:44 | 54.59325 | -24.84025 | 33355 ft | 502 kts | 96° |
| 2026-05-01 07:45 | 54.58129 | -24.72247 | 33346 ft | 502 kts | 96° |
| 2026-05-01 07:45 | 54.56911 | -24.60379 | 33357 ft | 501 kts | 96° |
| 2026-05-01 07:46 | 54.55686 | -24.48551 | 33464 ft | 503 kts | 96° |
| 2026-05-01 07:46 | 54.54450 | -24.36746 | 34346 ft | 497 kts | 97° |
| 2026-05-01 07:47 | 54.53841 | -24.30972 | 34763 ft | 494 kts | 97° |
| 2026-05-01 07:47 | 54.53226 | -24.25172 | 35168 ft | 490 kts | 97° |
| 2026-05-01 07:47 | 54.52611 | -24.19389 | 35369 ft | 491 kts | 97° |
| 2026-05-01 07:48 | 54.50742 | -24.01979 | 35327 ft | 491 kts | 97° |
| 2026-05-01 07:48 | 54.49488 | -23.90443 | 35344 ft | 490 kts | 98° |
| 2026-05-01 07:49 | 54.47589 | -23.73181 | 35340 ft | 489 kts | 98° |
| 2026-05-01 07:50 | 54.46321 | -23.61782 | 35340 ft | 489 kts | 98° |
| 2026-05-01 07:50 | 54.44385 | -23.44578 | 35331 ft | 488 kts | 98° |
| 2026-05-01 07:51 | 54.43082 | -23.33129 | 35336 ft | 488 kts | 98° |
| 2026-05-01 07:52 | 54.41106 | -23.15956 | 35327 ft | 489 kts | 98° |
| 2026-05-01 07:52 | 54.39774 | -23.04508 | 35329 ft | 489 kts | 98° |
| 2026-05-01 07:53 | 54.37753 | -22.87329 | 35333 ft | 490 kts | 98° |
| 2026-05-01 07:53 | 54.36392 | -22.75883 | 35320 ft | 490 kts | 98° |
| 2026-05-01 07:55 | 54.32955 | -22.47410 | 35314 ft | 488 kts | 98° |
| 2026-05-01 07:56 | 54.29450 | -22.18967 | 35313 ft | 487 kts | 98° |
| 2026-05-01 07:57 | 54.27559 | -22.03867 | 35316 ft | 487 kts | 99° |
| 2026-05-01 07:58 | 54.24679 | -21.81180 | 35312 ft | 488 kts | 99° |
| 2026-05-01 07:59 | 54.21755 | -21.58504 | 35309 ft | 488 kts | 99° |
| 2026-05-01 08:00 | 54.17293 | -21.24594 | 35308 ft | 489 kts | 99° |
| 2026-05-01 08:01 | 54.14257 | -21.01961 | 35312 ft | 489 kts | 99° |
| 2026-05-01 08:02 | 54.11961 | -20.85071 | 35292 ft | 489 kts | 99° |
| 2026-05-01 08:03 | 54.09635 | -20.68152 | 35293 ft | 489 kts | 99° |
| 2026-05-01 08:03 | 54.07284 | -20.51249 | 35294 ft | 488 kts | 99° |
| 2026-05-01 08:04 | 54.04116 | -20.28756 | 35302 ft | 488 kts | 99° |
| 2026-05-01 08:05 | 54.01727 | -20.12010 | 35282 ft | 486 kts | 99° |
| 2026-05-01 08:06 | 53.99274 | -19.95271 | 35263 ft | 486 kts | 101° |
| 2026-05-01 08:07 | 53.95327 | -19.73306 | 35271 ft | 486 kts | 103° |
| 2026-05-01 08:08 | 53.92351 | -19.56840 | 35267 ft | 487 kts | 102° |
| 2026-05-01 08:09 | 53.88412 | -19.34947 | 35264 ft | 487 kts | 102° |
| 2026-05-01 08:09 | 53.86419 | -19.23976 | 35263 ft | 486 kts | 102° |
| 2026-05-01 08:10 | 53.82406 | -19.02091 | 35266 ft | 486 kts | 102° |
| 2026-05-01 08:11 | 53.78362 | -18.80295 | 35256 ft | 485 kts | 102° |
| 2026-05-01 08:12 | 53.75304 | -18.63981 | 35249 ft | 485 kts | 102° |
| 2026-05-01 08:13 | 53.72228 | -18.47718 | 35254 ft | 484 kts | 102° |
| 2026-05-01 08:13 | 53.69147 | -18.31557 | 35241 ft | 483 kts | 102° |
| 2026-05-01 08:14 | 53.67073 | -18.20758 | 35242 ft | 483 kts | 103° |
| 2026-05-01 08:14 | 53.64989 | -18.09970 | 35232 ft | 484 kts | 103° |
| 2026-05-01 08:15 | 53.61844 | -17.93801 | 35240 ft | 484 kts | 103° |
| 2026-05-01 08:16 | 53.59733 | -17.83018 | 35236 ft | 485 kts | 104° |
| 2026-05-01 08:16 | 53.57623 | -17.72311 | 35226 ft | 485 kts | 104° |
| 2026-05-01 08:17 | 53.55491 | -17.61549 | 35219 ft | 484 kts | 104° |
| 2026-05-01 08:17 | 53.53351 | -17.50803 | 35208 ft | 484 kts | 104° |
| 2026-05-01 08:18 | 53.51200 | -17.40061 | 35206 ft | 484 kts | 104° |
| 2026-05-01 08:19 | 53.46885 | -17.18683 | 35206 ft | 484 kts | 105° |
| 2026-05-01 08:19 | 53.44710 | -17.08002 | 35195 ft | 483 kts | 105° |
| 2026-05-01 08:20 | 53.42541 | -16.97405 | 35190 ft | 483 kts | 105° |
| 2026-05-01 08:20 | 53.40353 | -16.86770 | 35185 ft | 482 kts | 105° |
| 2026-05-01 08:21 | 53.38157 | -16.76155 | 35181 ft | 482 kts | 105° |
| 2026-05-01 08:21 | 53.35953 | -16.65552 | 35189 ft | 481 kts | 106° |
| 2026-05-01 08:22 | 53.33739 | -16.54964 | 35197 ft | 482 kts | 106° |
| 2026-05-01 08:22 | 53.31523 | -16.44414 | 35178 ft | 483 kts | 107° |
| 2026-05-01 08:23 | 53.29287 | -16.33833 | 35156 ft | 483 kts | 106° |
| 2026-05-01 08:23 | 53.27038 | -16.23241 | 35157 ft | 483 kts | 107° |
| 2026-05-01 08:24 | 53.24781 | -16.12668 | 35145 ft | 483 kts | 106° |
| 2026-05-01 08:24 | 53.22525 | -16.02155 | 35138 ft | 484 kts | 106° |
| 2026-05-01 08:25 | 53.20243 | -15.91577 | 35133 ft | 484 kts | 107° |
| 2026-05-01 08:25 | 53.17950 | -15.80995 | 35143 ft | 484 kts | 107° |
| 2026-05-01 08:26 | 53.15648 | -15.70434 | 35133 ft | 485 kts | 107° |
| 2026-05-01 08:26 | 53.13349 | -15.59938 | 35130 ft | 485 kts | 107° |
| 2026-05-01 08:27 | 53.11023 | -15.49373 | 35120 ft | 485 kts | 107° |
| 2026-05-01 08:27 | 53.08690 | -15.38825 | 35118 ft | 485 kts | 108° |
| 2026-05-01 08:28 | 53.06349 | -15.28301 | 35109 ft | 484 kts | 108° |
| 2026-05-01 08:28 | 53.04019 | -15.17867 | 35102 ft | 484 kts | 108° |
| 2026-05-01 08:29 | 53.01679 | -15.07373 | 35094 ft | 483 kts | 106° |
| 2026-05-01 08:29 | 53.00231 | -14.96558 | 35100 ft | 478 kts | 95° |
| 2026-05-01 08:30 | 52.99947 | -14.85572 | 35111 ft | 475 kts | 88° |
| 2026-05-01 08:30 | 53.00030 | -14.74648 | 35081 ft | 476 kts | 89° |
| 2026-05-01 08:31 | 53.00084 | -14.63629 | 35077 ft | 477 kts | 89° |
| 2026-05-01 08:31 | 53.00099 | -14.52598 | 35078 ft | 478 kts | 89° |
| 2026-05-01 08:32 | 53.00095 | -14.41551 | 35092 ft | 478 kts | 89° |
| 2026-05-01 08:32 | 53.00084 | -14.30549 | 35070 ft | 479 kts | 91° |
| 2026-05-01 08:33 | 53.00064 | -14.19502 | 35061 ft | 479 kts | 91° |
| 2026-05-01 08:33 | 53.00023 | -14.08456 | 35050 ft | 478 kts | 93° |
| 2026-05-01 08:34 | 52.98778 | -13.97677 | 35051 ft | 476 kts | 109° |
| 2026-05-01 08:34 | 52.95910 | -13.87816 | 35011 ft | 476 kts | 120° |
| 2026-05-01 08:35 | 52.92546 | -13.78383 | 35039 ft | 474 kts | 121° |
| 2026-05-01 08:35 | 52.89195 | -13.68982 | 35049 ft | 474 kts | 121° |
| 2026-05-01 08:36 | 52.85860 | -13.59540 | 35048 ft | 474 kts | 121° |
| 2026-05-01 08:36 | 52.82558 | -13.50167 | 35044 ft | 475 kts | 121° |
| 2026-05-01 08:37 | 52.79219 | -13.40717 | 35038 ft | 476 kts | 121° |
| 2026-05-01 08:37 | 52.75866 | -13.31264 | 35031 ft | 477 kts | 121° |
| 2026-05-01 08:38 | 52.72496 | -13.21804 | 35037 ft | 477 kts | 121° |
| 2026-05-01 08:38 | 52.69145 | -13.12431 | 35029 ft | 477 kts | 122° |
| 2026-05-01 08:39 | 52.65775 | -13.03041 | 35030 ft | 475 kts | 122° |
| 2026-05-01 08:39 | 52.62406 | -12.93692 | 35027 ft | 473 kts | 122° |
| 2026-05-01 08:40 | 52.57360 | -12.79751 | 35038 ft | 471 kts | 122° |
| 2026-05-01 08:40 | 52.53999 | -12.70508 | 35035 ft | 471 kts | 122° |
| 2026-05-01 08:41 | 52.50631 | -12.61280 | 35045 ft | 471 kts | 122° |
| 2026-05-01 08:41 | 52.47266 | -12.52094 | 35025 ft | 472 kts | 123° |
| 2026-05-01 08:42 | 52.43880 | -12.42883 | 35033 ft | 471 kts | 123° |
| 2026-05-01 08:42 | 52.40492 | -12.33702 | 35047 ft | 470 kts | 123° |
| 2026-05-01 08:43 | 52.37117 | -12.24586 | 35059 ft | 470 kts | 123° |
| 2026-05-01 08:43 | 52.33721 | -12.15450 | 35047 ft | 469 kts | 123° |
| 2026-05-01 08:44 | 52.30323 | -12.06340 | 35046 ft | 470 kts | 123° |
| 2026-05-01 08:44 | 52.26913 | -11.97231 | 35047 ft | 470 kts | 123° |
| 2026-05-01 08:45 | 52.23499 | -11.88141 | 35047 ft | 469 kts | 124° |
| 2026-05-01 08:45 | 52.20636 | -11.80545 | 35047 ft | 469 kts | 124° |
| 2026-05-01 08:46 | 52.17229 | -11.71536 | 35058 ft | 468 kts | 125° |
| 2026-05-01 08:46 | 52.13802 | -11.62506 | 35062 ft | 468 kts | 125° |
| 2026-05-01 08:47 | 52.10369 | -11.53494 | 35061 ft | 468 kts | 125° |
| 2026-05-01 08:47 | 52.06951 | -11.44550 | 35064 ft | 468 kts | 125° |
| 2026-05-01 08:48 | 52.03502 | -11.35558 | 35064 ft | 468 kts | 125° |
| 2026-05-01 08:48 | 52.00057 | -11.26606 | 35058 ft | 466 kts | 126° |
| 2026-05-01 08:49 | 51.96632 | -11.17734 | 35058 ft | 462 kts | 126° |
| 2026-05-01 08:49 | 51.93223 | -11.08937 | 35062 ft | 458 kts | 126° |
| 2026-05-01 08:50 | 51.89856 | -11.00282 | 35065 ft | 456 kts | 126° |
| 2026-05-01 08:50 | 51.86467 | -10.91599 | 35076 ft | 455 kts | 126° |
| 2026-05-01 08:51 | 51.83083 | -10.82959 | 35078 ft | 455 kts | 126° |
| 2026-05-01 08:51 | 51.79684 | -10.74308 | 35077 ft | 456 kts | 126° |
| 2026-05-01 08:52 | 51.76275 | -10.65660 | 35080 ft | 456 kts | 127° |
| 2026-05-01 08:52 | 51.72882 | -10.57081 | 35078 ft | 456 kts | 127° |
| 2026-05-01 08:53 | 51.69459 | -10.48457 | 35087 ft | 456 kts | 127° |
| 2026-05-01 08:53 | 51.66036 | -10.39861 | 35088 ft | 456 kts | 127° |
| 2026-05-01 08:54 | 51.62621 | -10.31313 | 35091 ft | 456 kts | 127° |
| 2026-05-01 08:54 | 51.59187 | -10.22746 | 35093 ft | 456 kts | 127° |
| 2026-05-01 08:55 | 51.55742 | -10.14180 | 35097 ft | 456 kts | 127° |
| 2026-05-01 08:55 | 51.52285 | -10.05615 | 35101 ft | 457 kts | 127° |
| 2026-05-01 08:56 | 51.48813 | -9.97039 | 35099 ft | 458 kts | 127° |
| 2026-05-01 08:56 | 51.45334 | -9.88473 | 35100 ft | 459 kts | 127° |
| 2026-05-01 08:57 | 51.41841 | -9.79903 | 35098 ft | 459 kts | 127° |
| 2026-05-01 08:57 | 51.38356 | -9.71379 | 35091 ft | 459 kts | 127° |
| 2026-05-01 08:58 | 51.34847 | -9.62828 | 35097 ft | 460 kts | 128° |
| 2026-05-01 08:58 | 51.31331 | -9.54284 | 35098 ft | 458 kts | 128° |
| 2026-05-01 08:59 | 51.27826 | -9.45793 | 35101 ft | 456 kts | 128° |
| 2026-05-01 08:59 | 51.24354 | -9.37414 | 35101 ft | 454 kts | 128° |
| 2026-05-01 09:00 | 51.20873 | -9.29040 | 35108 ft | 452 kts | 128° |
| 2026-05-01 09:00 | 51.17393 | -9.20696 | 35107 ft | 452 kts | 128° |
| 2026-05-01 09:01 | 51.13898 | -9.12343 | 35117 ft | 452 kts | 128° |
| 2026-05-01 09:01 | 51.10399 | -9.04008 | 35116 ft | 454 kts | 128° |
| 2026-05-01 09:02 | 51.06890 | -8.95673 | 35109 ft | 452 kts | 129° |
| 2026-05-01 09:02 | 51.03393 | -8.87391 | 35113 ft | 450 kts | 129° |
| 2026-05-01 09:03 | 50.99907 | -8.79163 | 35118 ft | 448 kts | 129° |
| 2026-05-01 09:03 | 50.96446 | -8.71022 | 35121 ft | 447 kts | 129° |
| 2026-05-01 09:04 | 50.92964 | -8.62855 | 35126 ft | 447 kts | 129° |
| 2026-05-01 09:04 | 50.89478 | -8.54706 | 35129 ft | 447 kts | 129° |
| 2026-05-01 09:05 | 50.85980 | -8.46555 | 35094 ft | 447 kts | 129° |
| 2026-05-01 09:05 | 50.82487 | -8.38436 | 35115 ft | 445 kts | 129° |
| 2026-05-01 09:06 | 50.78998 | -8.30354 | 35134 ft | 444 kts | 129° |
| 2026-05-01 09:06 | 50.75512 | -8.22305 | 35141 ft | 443 kts | 129° |
| 2026-05-01 09:07 | 50.72055 | -8.14343 | 35143 ft | 442 kts | 129° |
| 2026-05-01 09:07 | 50.68572 | -8.06346 | 35128 ft | 442 kts | 129° |
| 2026-05-01 09:08 | 50.65442 | -7.97942 | 35150 ft | 448 kts | 121° |
| 2026-05-01 09:08 | 50.63144 | -7.88759 | 35143 ft | 451 kts | 115° |
| 2026-05-01 09:09 | 50.61025 | -7.79461 | 35146 ft | 451 kts | 115° |
| 2026-05-01 09:09 | 50.58884 | -7.70166 | 35155 ft | 452 kts | 116° |
| 2026-05-01 09:10 | 50.56721 | -7.60874 | 35155 ft | 453 kts | 116° |
| 2026-05-01 09:10 | 50.54539 | -7.51565 | 35159 ft | 453 kts | 116° |
| 2026-05-01 09:11 | 50.52365 | -7.42329 | 35129 ft | 454 kts | 116° |
| 2026-05-01 09:11 | 50.50169 | -7.33042 | 35153 ft | 454 kts | 116° |
| 2026-05-01 09:12 | 50.47959 | -7.23733 | 35167 ft | 454 kts | 116° |
| 2026-05-01 09:12 | 50.45742 | -7.14436 | 35170 ft | 455 kts | 116° |
| 2026-05-01 09:13 | 50.43514 | -7.05130 | 35167 ft | 455 kts | 116° |
| 2026-05-01 09:13 | 50.41280 | -6.95838 | 35167 ft | 455 kts | 116° |
| 2026-05-01 09:14 | 50.39053 | -6.86617 | 35167 ft | 456 kts | 116° |
| 2026-05-01 09:14 | 50.36796 | -6.77317 | 35170 ft | 457 kts | 116° |
| 2026-05-01 09:15 | 50.34522 | -6.67979 | 35178 ft | 459 kts | 116° |
| 2026-05-01 09:15 | 50.32235 | -6.58630 | 35184 ft | 460 kts | 116° |
| 2026-05-01 09:16 | 50.29935 | -6.49262 | 35180 ft | 461 kts | 116° |
| 2026-05-01 09:17 | 50.26487 | -6.35299 | 35175 ft | 461 kts | 116° |
| 2026-05-01 09:17 | 50.22999 | -6.21259 | 35186 ft | 462 kts | 116° |
| 2026-05-01 09:18 | 50.19500 | -6.07266 | 35186 ft | 463 kts | 116° |
| 2026-05-01 09:19 | 50.15964 | -5.93214 | 35166 ft | 463 kts | 116° |
| 2026-05-01 09:20 | 50.12413 | -5.79188 | 35183 ft | 463 kts | 116° |
| 2026-05-01 09:21 | 50.07652 | -5.60521 | 35182 ft | 464 kts | 116° |
| 2026-05-01 09:21 | 50.04075 | -5.46598 | 35146 ft | 464 kts | 116° |
| 2026-05-01 09:22 | 49.99267 | -5.28014 | 35188 ft | 465 kts | 116° |
| 2026-05-01 09:23 | 49.95615 | -5.14002 | 35186 ft | 467 kts | 116° |
| 2026-05-01 09:24 | 49.91937 | -4.99975 | 35206 ft | 467 kts | 116° |
| 2026-05-01 09:25 | 49.87007 | -4.81303 | 35211 ft | 467 kts | 116° |
| 2026-05-01 09:26 | 49.83305 | -4.67380 | 35211 ft | 467 kts | 116° |
| 2026-05-01 09:26 | 49.79578 | -4.53451 | 35209 ft | 466 kts | 116° |
| 2026-05-01 09:27 | 49.75839 | -4.39559 | 35210 ft | 467 kts | 116° |
| 2026-05-01 09:28 | 49.73331 | -4.30285 | 35216 ft | 467 kts | 116° |
| 2026-05-01 09:28 | 49.70815 | -4.21021 | 35214 ft | 468 kts | 116° |
| 2026-05-01 09:29 | 49.67035 | -4.07158 | 35204 ft | 469 kts | 116° |
| 2026-05-01 09:30 | 49.64547 | -3.92459 | 35216 ft | 478 kts | 99° |
| 2026-05-01 09:30 | 49.63647 | -3.77099 | 35229 ft | 480 kts | 98° |
| 2026-05-01 09:31 | 49.63043 | -3.66836 | 35226 ft | 481 kts | 98° |
| 2026-05-01 09:32 | 49.62074 | -3.51415 | 35215 ft | 481 kts | 98° |
| 2026-05-01 09:32 | 49.61078 | -3.36054 | 35224 ft | 482 kts | 98° |
| 2026-05-01 09:33 | 49.60401 | -3.25784 | 35224 ft | 482 kts | 98° |
| 2026-05-01 09:34 | 49.59484 | -3.12087 | 35211 ft | 482 kts | 98° |
| 2026-05-01 09:34 | 49.58432 | -2.96671 | 35225 ft | 482 kts | 98° |
| 2026-05-01 09:35 | 49.57361 | -2.81264 | 35225 ft | 482 kts | 98° |
| 2026-05-01 09:36 | 49.56635 | -2.70996 | 35213 ft | 482 kts | 98° |
| 2026-05-01 09:36 | 49.55899 | -2.60727 | 35206 ft | 482 kts | 98° |
| 2026-05-01 09:37 | 49.55159 | -2.50525 | 35211 ft | 482 kts | 98° |
| 2026-05-01 09:37 | 49.54025 | -2.35114 | 35226 ft | 483 kts | 98° |
| 2026-05-01 09:38 | 49.52870 | -2.19711 | 35205 ft | 483 kts | 98° |
| 2026-05-01 09:39 | 49.51695 | -2.04330 | 35227 ft | 482 kts | 98° |
| 2026-05-01 09:39 | 49.50905 | -1.94133 | 35221 ft | 482 kts | 98° |
| 2026-05-01 09:40 | 49.49698 | -1.78770 | 35217 ft | 482 kts | 98° |
| 2026-05-01 09:41 | 49.48885 | -1.68550 | 35219 ft | 481 kts | 98° |
| 2026-05-01 09:41 | 49.47640 | -1.53246 | 35215 ft | 479 kts | 98° |
| 2026-05-01 09:42 | 49.46801 | -1.43082 | 35212 ft | 478 kts | 98° |
| 2026-05-01 09:43 | 49.45111 | -1.22897 | 35212 ft | 477 kts | 99° |
| 2026-05-01 09:43 | 49.44251 | -1.12794 | 35212 ft | 476 kts | 99° |
| 2026-05-01 09:44 | 49.42948 | -0.97673 | 35209 ft | 475 kts | 99° |
| 2026-05-01 09:45 | 49.42068 | -0.87601 | 35200 ft | 475 kts | 99° |
| 2026-05-01 09:45 | 49.40740 | -0.72584 | 35206 ft | 475 kts | 99° |
| 2026-05-01 09:46 | 49.39841 | -0.62549 | 35210 ft | 474 kts | 99° |
| 2026-05-01 09:46 | 49.38933 | -0.52509 | 35143 ft | 475 kts | 99° |
| 2026-05-01 09:47 | 49.38468 | -0.47419 | 34308 ft | 487 kts | 100° |
| 2026-05-01 09:47 | 49.37998 | -0.42280 | 33508 ft | 485 kts | 100° |
| 2026-05-01 09:47 | 49.37532 | -0.37205 | 32566 ft | 473 kts | 100° |
| 2026-05-01 09:47 | 49.37073 | -0.32226 | 31729 ft | 470 kts | 100° |
| 2026-05-01 09:48 | 49.36610 | -0.27244 | 30844 ft | 472 kts | 100° |
| 2026-05-01 09:48 | 49.36163 | -0.22285 | 30220 ft | 468 kts | 98° |
| 2026-05-01 09:48 | 49.35823 | -0.17399 | 29513 ft | 464 kts | 97° |
| 2026-05-01 09:48 | 49.35541 | -0.12492 | 28861 ft | 459 kts | 96° |
| 2026-05-01 09:49 | 49.35271 | -0.07575 | 28248 ft | 454 kts | 97° |
| 2026-05-01 09:49 | 49.35002 | -0.02839 | 27658 ft | 449 kts | 97° |
| 2026-05-01 09:49 | 49.34718 | 0.01921 | 27054 ft | 445 kts | 98° |
| 2026-05-01 09:49 | 49.34425 | 0.06638 | 26473 ft | 441 kts | 98° |
| 2026-05-01 09:50 | 49.34129 | 0.11289 | 25903 ft | 437 kts | 98° |
| 2026-05-01 09:50 | 49.33831 | 0.15898 | 25346 ft | 433 kts | 98° |
| 2026-05-01 09:50 | 49.33533 | 0.20483 | 24793 ft | 430 kts | 98° |
| 2026-05-01 09:50 | 49.33234 | 0.25038 | 24241 ft | 428 kts | 98° |
| 2026-05-01 09:51 | 49.32937 | 0.29555 | 23652 ft | 426 kts | 98° |
| 2026-05-01 09:51 | 49.32640 | 0.34053 | 23034 ft | 423 kts | 98° |
| 2026-05-01 09:51 | 49.32346 | 0.38492 | 22825 ft | 411 kts | 98° |
| 2026-05-01 09:51 | 49.32062 | 0.42783 | 22633 ft | 400 kts | 98° |
| 2026-05-01 09:52 | 49.31782 | 0.46963 | 22456 ft | 388 kts | 99° |
| 2026-05-01 09:52 | 49.31530 | 0.51029 | 22186 ft | 381 kts | 97° |
| 2026-05-01 09:52 | 49.31424 | 0.55083 | 21757 ft | 379 kts | 94° |
| 2026-05-01 09:52 | 49.31395 | 0.59102 | 21333 ft | 376 kts | 94° |
| 2026-05-01 09:53 | 49.31382 | 0.63037 | 20921 ft | 373 kts | 94° |
| 2026-05-01 09:53 | 49.31365 | 0.66997 | 20499 ft | 370 kts | 94° |
| 2026-05-01 09:53 | 49.31338 | 0.70928 | 20079 ft | 367 kts | 94° |
| 2026-05-01 09:53 | 49.31301 | 0.74848 | 19659 ft | 365 kts | 94° |
| 2026-05-01 09:54 | 49.31259 | 0.78719 | 19247 ft | 362 kts | 95° |
| 2026-05-01 09:54 | 49.31212 | 0.82569 | 18836 ft | 360 kts | 95° |
| 2026-05-01 09:54 | 49.31162 | 0.86411 | 18403 ft | 358 kts | 95° |
| 2026-05-01 09:54 | 49.31111 | 0.90215 | 17932 ft | 356 kts | 95° |
| 2026-05-01 09:55 | 49.31059 | 0.93991 | 17511 ft | 353 kts | 95° |
| 2026-05-01 09:55 | 49.31006 | 0.97692 | 17102 ft | 350 kts | 95° |
| 2026-05-01 09:55 | 49.30952 | 1.01397 | 16692 ft | 346 kts | 95° |
| 2026-05-01 09:55 | 49.30897 | 1.05076 | 16288 ft | 345 kts | 95° |
| 2026-05-01 09:56 | 49.30840 | 1.08751 | 15881 ft | 344 kts | 95° |
| 2026-05-01 09:56 | 49.30782 | 1.12420 | 15482 ft | 344 kts | 95° |
| 2026-05-01 09:56 | 49.30724 | 1.16084 | 15085 ft | 344 kts | 95° |
| 2026-05-01 09:56 | 49.30665 | 1.19754 | 14675 ft | 344 kts | 95° |
| 2026-05-01 09:57 | 49.30604 | 1.23422 | 14271 ft | 344 kts | 95° |
| 2026-05-01 09:57 | 49.30541 | 1.27094 | 13837 ft | 344 kts | 95° |
| 2026-05-01 09:57 | 49.30476 | 1.30770 | 13394 ft | 344 kts | 94° |
| 2026-05-01 09:57 | 49.30415 | 1.34410 | 12955 ft | 341 kts | 94° |
| 2026-05-01 09:58 | 49.30354 | 1.38024 | 12548 ft | 337 kts | 94° |
| 2026-05-01 09:58 | 49.30290 | 1.41592 | 12161 ft | 334 kts | 94° |
| 2026-05-01 09:58 | 49.30225 | 1.45087 | 11759 ft | 331 kts | 94° |
| 2026-05-01 09:58 | 49.30161 | 1.48562 | 11570 ft | 321 kts | 94° |
| 2026-05-01 09:59 | 49.30099 | 1.51921 | 11420 ft | 310 kts | 94° |
| 2026-05-01 09:59 | 49.30037 | 1.55160 | 11318 ft | 298 kts | 95° |
| 2026-05-01 09:59 | 49.29882 | 1.58259 | 11240 ft | 290 kts | 107° |
| 2026-05-01 09:59 | 49.29005 | 1.61002 | 11248 ft | 286 kts | 131° |
| 2026-05-01 10:00 | 49.27616 | 1.63168 | 11246 ft | 285 kts | 139° |
| 2026-05-01 10:00 | 49.26123 | 1.65154 | 11239 ft | 284 kts | 141° |
| 2026-05-01 10:00 | 49.24612 | 1.67105 | 11236 ft | 283 kts | 141° |
| 2026-05-01 10:00 | 49.23104 | 1.69040 | 11229 ft | 282 kts | 141° |
| 2026-05-01 10:01 | 49.21599 | 1.70966 | 11228 ft | 281 kts | 141° |
| 2026-05-01 10:01 | 49.20102 | 1.72878 | 11221 ft | 278 kts | 141° |
| 2026-05-01 10:01 | 49.18638 | 1.74746 | 11100 ft | 271 kts | 141° |
| 2026-05-01 10:01 | 49.17200 | 1.76581 | 10823 ft | 268 kts | 142° |
| 2026-05-01 10:02 | 49.15771 | 1.78393 | 10479 ft | 267 kts | 141° |
| 2026-05-01 10:02 | 49.14334 | 1.80215 | 10013 ft | 269 kts | 141° |
| 2026-05-01 10:02 | 49.12908 | 1.82021 | 9596 ft | 269 kts | 141° |
| 2026-05-01 10:02 | 49.11475 | 1.83832 | 9241 ft | 266 kts | 142° |
| 2026-05-01 10:03 | 49.10060 | 1.85621 | 8869 ft | 264 kts | 141° |
| 2026-05-01 10:03 | 49.08654 | 1.87401 | 8469 ft | 260 kts | 141° |
| 2026-05-01 10:03 | 49.07255 | 1.89168 | 8030 ft | 262 kts | 141° |
| 2026-05-01 10:03 | 49.05845 | 1.90948 | 7601 ft | 264 kts | 141° |
| 2026-05-01 10:04 | 49.04480 | 1.92801 | 7135 ft | 262 kts | 130° |
| 2026-05-01 10:04 | 49.03581 | 1.95210 | 6718 ft | 263 kts | 115° |
| 2026-05-01 10:04 | 49.02915 | 1.97811 | 6295 ft | 264 kts | 112° |
| 2026-05-01 10:04 | 49.02285 | 2.00441 | 5889 ft | 264 kts | 112° |
| 2026-05-01 10:05 | 49.01666 | 2.03060 | 5563 ft | 260 kts | 112° |
| 2026-05-01 10:05 | 49.01063 | 2.05637 | 5262 ft | 254 kts | 111° |
| 2026-05-01 10:05 | 49.00486 | 2.08145 | 5004 ft | 247 kts | 111° |
| 2026-05-01 10:05 | 49.00210 | 2.10664 | 4717 ft | 247 kts | 89° |
| 2026-05-01 10:06 | 49.00370 | 2.13259 | 4490 ft | 248 kts | 87° |
| 2026-05-01 10:06 | 49.00507 | 2.15888 | 4238 ft | 250 kts | 88° |
| 2026-05-01 10:06 | 49.00643 | 2.18498 | 4078 ft | 242 kts | 88° |
| 2026-05-01 10:06 | 49.00776 | 2.20969 | 4092 ft | 228 kts | 87° |
| 2026-05-01 10:07 | 49.00905 | 2.23378 | 4020 ft | 226 kts | 88° |
| 2026-05-01 10:07 | 49.01034 | 2.25749 | 3764 ft | 223 kts | 88° |
| 2026-05-01 10:07 | 49.01157 | 2.28063 | 3519 ft | 213 kts | 88° |
| 2026-05-01 10:07 | 49.01275 | 2.30243 | 3208 ft | 199 kts | 88° |
| 2026-05-01 10:08 | 49.01488 | 2.34211 | 2739 ft | 177 kts | 88° |
| 2026-05-01 10:08 | 49.01584 | 2.36013 | 2506 ft | 164 kts | 88° |
| 2026-05-01 10:08 | 49.01676 | 2.37699 | 2279 ft | 162 kts | 88° |
| 2026-05-01 10:09 | 49.01767 | 2.39434 | 2092 ft | 166 kts | 88° |
| 2026-05-01 10:09 | 49.01866 | 2.41198 | 1835 ft | 165 kts | 87° |
| 2026-05-01 10:09 | 49.01955 | 2.42905 | 1609 ft | 158 kts | 88° |
| 2026-05-01 10:09 | 49.02044 | 2.44591 | 1431 ft | 162 kts | 87° |
| 2026-05-01 10:10 | 49.02139 | 2.46292 | 1181 ft | 159 kts | 87° |
| 2026-05-01 10:10 | 49.02216 | 2.47950 | 997 ft | 154 kts | 89° |
| 2026-05-01 10:10 | 49.02400 | 2.51103 | 570 ft | 144 kts | 88° |
| 2026-05-01 10:11 | 49.02478 | 2.52579 | 390 ft | 137 kts | 86° |
| 2026-05-01 10:11 | 49.02547 | 2.53887 | 363 ft | 101 kts | 85° |
| 2026-05-01 10:11 | 49.02587 | 2.54675 | 360 ft | 48 kts | 85° |
| 2026-05-01 10:11 | 49.02604 | 2.55042 | 364 ft | 32 kts | 88° |
| 2026-05-01 10:12 | 49.02555 | 2.55353 | 363 ft | 28 kts | 114° |
| 2026-05-01 10:12 | 49.02526 | 2.55448 | 366 ft | 12 kts | 117° |
| 2026-05-01 10:12 | 49.02498 | 2.55529 | 368 ft | 3 kts | 117° |
| 2026-05-01 10:13 | 49.02485 | 2.55566 | 360 ft | 5 kts | 120° |
| 2026-05-01 10:13 | 49.02453 | 2.55603 | 365 ft | 7 kts | 161° |
| 2026-05-01 10:13 | 49.02398 | 2.55615 | 359 ft | 9 kts | 175° |
| 2026-05-01 10:14 | 49.02247 | 2.55635 | 364 ft | 13 kts | 175° |
| 2026-05-01 10:14 | 49.02145 | 2.55647 | 363 ft | 20 kts | 175° |
| 2026-05-01 10:14 | 49.02021 | 2.55664 | 359 ft | 16 kts | 175° |
| 2026-05-01 10:14 | 49.01913 | 2.55665 | 363 ft | 16 kts | 208° |
| 2026-05-01 10:15 | 49.01884 | 2.55508 | 362 ft | 16 kts | 265° |
| 2026-05-01 10:15 | 49.01874 | 2.55339 | 365 ft | 16 kts | 265° |
| 2026-05-01 10:15 | 49.01865 | 2.55172 | 364 ft | 16 kts | 265° |
| 2026-05-01 10:15 | 49.01855 | 2.55003 | 359 ft | 16 kts | 265° |
| 2026-05-01 10:16 | 49.01847 | 2.54834 | 359 ft | 16 kts | 265° |
| 2026-05-01 10:16 | 49.01838 | 2.54665 | 359 ft | 16 kts | 265° |
| 2026-05-01 10:16 | 49.01819 | 2.54328 | 365 ft | 16 kts | 265° |
| 2026-05-01 10:17 | 49.01810 | 2.54159 | 363 ft | 16 kts | 265° |
| 2026-05-01 10:17 | 49.01790 | 2.53822 | 365 ft | 16 kts | 265° |
| 2026-05-01 10:17 | 49.01780 | 2.53653 | 361 ft | 16 kts | 265° |
| 2026-05-01 10:18 | 49.01765 | 2.53317 | 360 ft | 16 kts | 265° |
| 2026-05-01 10:18 | 49.01755 | 2.53147 | 365 ft | 16 kts | 265° |
| 2026-05-01 10:18 | 49.01745 | 2.52975 | 366 ft | 16 kts | 265° |
| 2026-05-01 10:19 | 49.01734 | 2.52803 | 362 ft | 16 kts | 264° |
| 2026-05-01 10:19 | 49.01724 | 2.52632 | 361 ft | 16 kts | 264° |
| 2026-05-01 10:19 | 49.01717 | 2.52517 | 366 ft | 16 kts | 266° |
| 2026-05-01 10:20 | 49.01704 | 2.52174 | 366 ft | 16 kts | 266° |
| 2026-05-01 10:20 | 49.01696 | 2.52002 | 360 ft | 16 kts | 265° |
| 2026-05-01 10:20 | 49.01683 | 2.51775 | 361 ft | 16 kts | 264° |
| 2026-05-01 10:20 | 49.01672 | 2.51602 | 365 ft | 17 kts | 264° |
| 2026-05-01 10:21 | 49.01665 | 2.51484 | 359 ft | 17 kts | 264° |
| 2026-05-01 10:21 | 49.01644 | 2.51138 | 365 ft | 17 kts | 265° |
| 2026-05-01 10:21 | 49.01635 | 2.50963 | 359 ft | 17 kts | 265° |
| 2026-05-01 10:22 | 49.01615 | 2.50614 | 363 ft | 16 kts | 265° |
| 2026-05-01 10:22 | 49.01473 | 2.50438 | 360 ft | 17 kts | 182° |
| 2026-05-01 10:23 | 49.01420 | 2.50305 | 363 ft | 17 kts | 266° |
| 2026-05-01 10:23 | 49.01405 | 2.50000 | 359 ft | 7 kts | 265° |
| 2026-05-01 10:23 | 49.01378 | 2.49951 | 364 ft | 7 kts | 194° |
| 2026-05-01 10:24 | 49.01309 | 2.49958 | 361 ft | 0 kts | 174° |